sensor_id;sensor_type;location;lat;lon;timestamp;P1;durP1;ratioP1;P2;durP2;ratioP2
3311;SDS011;1668;49.648;8.570;2022-07-06T00:00:24;3.93;;;2.13;;
3311;SDS011;1668;49.648;8.570;2022-07-06T00:02:51;7.43;;;2.67;;
3311;SDS011;1668;49.648;8.570;2022-07-06T00:05:17;3.23;;;2.07;;
3311;SDS011;1668;49.648;8.570;2022-07-06T00:07:44;5.37;;;2.27;;
3311;SDS011;1668;49.648;8.570;2022-07-06T00:10:12;5.10;;;2.20;;
3311;SDS011;1668;49.648;8.570;2022-07-06T00:12:39;2.73;;;2.07;;
3311;SDS011;1668;49.648;8.570;2022-07-06T00:15:06;5.50;;;2.33;;
3311;SDS011;1668;49.648;8.570;2022-07-06T00:17:34;5.80;;;2.30;;
3311;SDS011;1668;49.648;8.570;2022-07-06T00:20:01;4.10;;;2.10;;
3311;SDS011;1668;49.648;8.570;2022-07-06T00:22:28;3.13;;;1.90;;
3311;SDS011;1668;49.648;8.570;2022-07-06T00:24:55;5.03;;;2.40;;
3311;SDS011;1668;49.648;8.570;2022-07-06T00:27:22;8.57;;;2.30;;
3311;SDS011;1668;49.648;8.570;2022-07-06T00:29:49;4.07;;;2.60;;
3311;SDS011;1668;49.648;8.570;2022-07-06T00:32:16;5.60;;;2.30;;
3311;SDS011;1668;49.648;8.570;2022-07-06T00:34:44;3.83;;;2.30;;
3311;SDS011;1668;49.648;8.570;2022-07-06T00:37:11;3.47;;;2.20;;
3311;SDS011;1668;49.648;8.570;2022-07-06T00:39:40;3.37;;;2.30;;
3311;SDS011;1668;49.648;8.570;2022-07-06T00:42:07;5.00;;;2.30;;
3311;SDS011;1668;49.648;8.570;2022-07-06T00:44:34;3.00;;;2.23;;
3311;SDS011;1668;49.648;8.570;2022-07-06T00:47:01;2.70;;;2.00;;
3311;SDS011;1668;49.648;8.570;2022-07-06T00:49:28;3.03;;;2.73;;
3311;SDS011;1668;49.648;8.570;2022-07-06T00:52:14;6.93;;;2.43;;
3311;SDS011;1668;49.648;8.570;2022-07-06T00:54:41;5.97;;;2.17;;
3311;SDS011;1668;49.648;8.570;2022-07-06T00:57:09;5.60;;;2.40;;
3311;SDS011;1668;49.648;8.570;2022-07-06T00:59:37;4.97;;;2.53;;
3311;SDS011;1668;49.648;8.570;2022-07-06T01:02:04;3.80;;;2.50;;
3311;SDS011;1668;49.648;8.570;2022-07-06T01:04:31;3.10;;;2.20;;
3311;SDS011;1668;49.648;8.570;2022-07-06T01:06:57;4.73;;;2.30;;
3311;SDS011;1668;49.648;8.570;2022-07-06T01:09:26;3.23;;;2.30;;
3311;SDS011;1668;49.648;8.570;2022-07-06T01:11:53;6.53;;;2.63;;
3311;SDS011;1668;49.648;8.570;2022-07-06T01:14:20;5.17;;;2.90;;
3311;SDS011;1668;49.648;8.570;2022-07-06T01:16:47;6.30;;;2.60;;
3311;SDS011;1668;49.648;8.570;2022-07-06T01:19:15;5.13;;;2.50;;
3311;SDS011;1668;49.648;8.570;2022-07-06T01:21:43;3.67;;;2.03;;
3311;SDS011;1668;49.648;8.570;2022-07-06T01:24:10;6.20;;;2.73;;
3311;SDS011;1668;49.648;8.570;2022-07-06T01:26:37;3.67;;;2.20;;
3311;SDS011;1668;49.648;8.570;2022-07-06T01:29:04;6.63;;;2.17;;
3311;SDS011;1668;49.648;8.570;2022-07-06T01:31:31;3.17;;;2.63;;
3311;SDS011;1668;49.648;8.570;2022-07-06T01:33:57;3.90;;;2.17;;
3311;SDS011;1668;49.648;8.570;2022-07-06T01:36:25;6.87;;;2.43;;
3311;SDS011;1668;49.648;8.570;2022-07-06T01:38:53;4.30;;;2.70;;
3311;SDS011;1668;49.648;8.570;2022-07-06T01:41:23;3.77;;;2.53;;
3311;SDS011;1668;49.648;8.570;2022-07-06T01:43:50;7.40;;;3.10;;
3311;SDS011;1668;49.648;8.570;2022-07-06T01:46:17;6.07;;;2.43;;
3311;SDS011;1668;49.648;8.570;2022-07-06T01:48:44;6.63;;;2.40;;
3311;SDS011;1668;49.648;8.570;2022-07-06T01:51:12;4.20;;;2.50;;
3311;SDS011;1668;49.648;8.570;2022-07-06T01:53:39;4.63;;;2.50;;
3311;SDS011;1668;49.648;8.570;2022-07-06T01:56:08;5.50;;;2.60;;
3311;SDS011;1668;49.648;8.570;2022-07-06T01:58:35;2.70;;;2.43;;
3311;SDS011;1668;49.648;8.570;2022-07-06T02:01:07;5.00;;;3.00;;
3311;SDS011;1668;49.648;8.570;2022-07-06T02:03:35;4.00;;;2.40;;
3311;SDS011;1668;49.648;8.570;2022-07-06T02:06:03;4.77;;;3.07;;
3311;SDS011;1668;49.648;8.570;2022-07-06T02:08:30;2.40;;;2.20;;
3311;SDS011;1668;49.648;8.570;2022-07-06T02:10:57;4.30;;;2.80;;
3311;SDS011;1668;49.648;8.570;2022-07-06T02:13:26;5.07;;;2.70;;
3311;SDS011;1668;49.648;8.570;2022-07-06T02:15:53;7.10;;;2.50;;
3311;SDS011;1668;49.648;8.570;2022-07-06T02:18:20;3.87;;;2.50;;
3311;SDS011;1668;49.648;8.570;2022-07-06T02:20:47;6.20;;;2.60;;
3311;SDS011;1668;49.648;8.570;2022-07-06T02:23:14;3.40;;;2.27;;
3311;SDS011;1668;49.648;8.570;2022-07-06T02:25:41;4.83;;;2.50;;
3311;SDS011;1668;49.648;8.570;2022-07-06T02:28:08;6.80;;;2.57;;
3311;SDS011;1668;49.648;8.570;2022-07-06T02:30:36;5.73;;;2.60;;
3311;SDS011;1668;49.648;8.570;2022-07-06T02:33:03;2.70;;;2.10;;
3311;SDS011;1668;49.648;8.570;2022-07-06T02:35:30;3.60;;;2.73;;
3311;SDS011;1668;49.648;8.570;2022-07-06T02:37:57;6.03;;;2.93;;
3311;SDS011;1668;49.648;8.570;2022-07-06T02:40:23;4.70;;;2.30;;
3311;SDS011;1668;49.648;8.570;2022-07-06T02:42:50;3.60;;;2.70;;
3311;SDS011;1668;49.648;8.570;2022-07-06T02:45:17;7.00;;;2.50;;
3311;SDS011;1668;49.648;8.570;2022-07-06T02:47:45;7.70;;;2.40;;
3311;SDS011;1668;49.648;8.570;2022-07-06T02:50:12;5.77;;;2.10;;
3311;SDS011;1668;49.648;8.570;2022-07-06T02:52:39;3.00;;;2.30;;
3311;SDS011;1668;49.648;8.570;2022-07-06T02:55:06;5.10;;;2.77;;
3311;SDS011;1668;49.648;8.570;2022-07-06T02:57:33;7.47;;;2.60;;
3311;SDS011;1668;49.648;8.570;2022-07-06T03:00:00;6.43;;;2.30;;
3311;SDS011;1668;49.648;8.570;2022-07-06T03:02:28;6.53;;;2.73;;
3311;SDS011;1668;49.648;8.570;2022-07-06T03:04:56;4.13;;;2.33;;
3311;SDS011;1668;49.648;8.570;2022-07-06T03:07:23;2.83;;;2.53;;
3311;SDS011;1668;49.648;8.570;2022-07-06T03:09:50;3.53;;;2.40;;
3311;SDS011;1668;49.648;8.570;2022-07-06T03:12:17;2.63;;;2.30;;
3311;SDS011;1668;49.648;8.570;2022-07-06T03:14:44;4.27;;;2.47;;
3311;SDS011;1668;49.648;8.570;2022-07-06T03:17:11;4.30;;;2.63;;
3311;SDS011;1668;49.648;8.570;2022-07-06T03:19:38;3.63;;;2.50;;
3311;SDS011;1668;49.648;8.570;2022-07-06T03:22:06;5.87;;;2.60;;
3311;SDS011;1668;49.648;8.570;2022-07-06T03:24:33;3.60;;;2.17;;
3311;SDS011;1668;49.648;8.570;2022-07-06T03:27:00;4.17;;;2.77;;
3311;SDS011;1668;49.648;8.570;2022-07-06T03:29:27;4.63;;;2.57;;
3311;SDS011;1668;49.648;8.570;2022-07-06T03:31:54;6.10;;;2.23;;
3311;SDS011;1668;49.648;8.570;2022-07-06T03:34:21;7.33;;;2.27;;
3311;SDS011;1668;49.648;8.570;2022-07-06T03:36:48;4.10;;;2.50;;
3311;SDS011;1668;49.648;8.570;2022-07-06T03:39:16;2.33;;;1.80;;
3311;SDS011;1668;49.648;8.570;2022-07-06T03:41:43;4.20;;;2.30;;
3311;SDS011;1668;49.648;8.570;2022-07-06T03:44:10;4.73;;;2.53;;
3311;SDS011;1668;49.648;8.570;2022-07-06T03:46:36;6.90;;;2.13;;
3311;SDS011;1668;49.648;8.570;2022-07-06T03:49:03;5.53;;;2.20;;
3311;SDS011;1668;49.648;8.570;2022-07-06T03:51:30;3.50;;;2.13;;
3311;SDS011;1668;49.648;8.570;2022-07-06T03:53:57;4.00;;;2.63;;
3311;SDS011;1668;49.648;8.570;2022-07-06T03:56:25;7.33;;;2.27;;
3311;SDS011;1668;49.648;8.570;2022-07-06T03:58:55;5.20;;;2.43;;
3311;SDS011;1668;49.648;8.570;2022-07-06T04:01:23;4.20;;;1.90;;
3311;SDS011;1668;49.648;8.570;2022-07-06T04:03:50;3.50;;;2.13;;
3311;SDS011;1668;49.648;8.570;2022-07-06T04:06:17;2.80;;;2.10;;
3311;SDS011;1668;49.648;8.570;2022-07-06T04:08:44;3.50;;;2.00;;
3311;SDS011;1668;49.648;8.570;2022-07-06T04:11:11;2.50;;;1.73;;
3311;SDS011;1668;49.648;8.570;2022-07-06T04:13:39;5.13;;;2.57;;
3311;SDS011;1668;49.648;8.570;2022-07-06T04:16:06;3.13;;;2.30;;
3311;SDS011;1668;49.648;8.570;2022-07-06T04:18:34;4.43;;;2.20;;
3311;SDS011;1668;49.648;8.570;2022-07-06T04:21:01;4.53;;;1.77;;
3311;SDS011;1668;49.648;8.570;2022-07-06T04:23:28;2.90;;;2.00;;
3311;SDS011;1668;49.648;8.570;2022-07-06T04:25:55;3.80;;;2.00;;
3311;SDS011;1668;49.648;8.570;2022-07-06T04:28:22;3.00;;;2.13;;
3311;SDS011;1668;49.648;8.570;2022-07-06T04:30:50;5.40;;;2.40;;
3311;SDS011;1668;49.648;8.570;2022-07-06T04:33:17;3.60;;;2.10;;
3311;SDS011;1668;49.648;8.570;2022-07-06T04:35:44;3.00;;;2.10;;
3311;SDS011;1668;49.648;8.570;2022-07-06T04:38:11;2.97;;;1.90;;
3311;SDS011;1668;49.648;8.570;2022-07-06T04:40:38;3.60;;;2.00;;
3311;SDS011;1668;49.648;8.570;2022-07-06T04:43:05;5.50;;;2.20;;
3311;SDS011;1668;49.648;8.570;2022-07-06T04:45:32;4.00;;;1.97;;
3311;SDS011;1668;49.648;8.570;2022-07-06T04:48:00;2.90;;;2.10;;
3311;SDS011;1668;49.648;8.570;2022-07-06T04:50:27;4.57;;;1.97;;
3311;SDS011;1668;49.648;8.570;2022-07-06T04:52:54;4.07;;;1.80;;
3311;SDS011;1668;49.648;8.570;2022-07-06T04:55:20;3.17;;;2.03;;
3311;SDS011;1668;49.648;8.570;2022-07-06T04:57:47;6.10;;;2.30;;
3311;SDS011;1668;49.648;8.570;2022-07-06T05:00:16;4.70;;;1.90;;
3311;SDS011;1668;49.648;8.570;2022-07-06T05:02:43;3.70;;;2.13;;
3311;SDS011;1668;49.648;8.570;2022-07-06T05:05:11;3.40;;;2.23;;
3311;SDS011;1668;49.648;8.570;2022-07-06T05:07:39;5.83;;;2.33;;
3311;SDS011;1668;49.648;8.570;2022-07-06T05:10:06;5.03;;;2.17;;
3311;SDS011;1668;49.648;8.570;2022-07-06T05:12:34;5.17;;;2.40;;
3311;SDS011;1668;49.648;8.570;2022-07-06T05:15:01;4.60;;;2.30;;
3311;SDS011;1668;49.648;8.570;2022-07-06T05:17:29;6.03;;;2.17;;
3311;SDS011;1668;49.648;8.570;2022-07-06T05:19:55;6.10;;;2.40;;
3311;SDS011;1668;49.648;8.570;2022-07-06T05:22:24;5.03;;;2.20;;
3311;SDS011;1668;49.648;8.570;2022-07-06T05:24:51;2.60;;;2.17;;
3311;SDS011;1668;49.648;8.570;2022-07-06T05:27:18;5.03;;;2.40;;
3311;SDS011;1668;49.648;8.570;2022-07-06T05:29:45;3.33;;;2.17;;
3311;SDS011;1668;49.648;8.570;2022-07-06T05:32:12;4.40;;;2.90;;
3311;SDS011;1668;49.648;8.570;2022-07-06T05:34:39;5.90;;;2.53;;
3311;SDS011;1668;49.648;8.570;2022-07-06T05:37:06;4.23;;;2.20;;
3311;SDS011;1668;49.648;8.570;2022-07-06T05:39:34;6.03;;;2.80;;
3311;SDS011;1668;49.648;8.570;2022-07-06T05:42:01;5.70;;;3.00;;
3311;SDS011;1668;49.648;8.570;2022-07-06T05:44:28;6.43;;;3.17;;
3311;SDS011;1668;49.648;8.570;2022-07-06T05:46:55;10.97;;;3.30;;
3311;SDS011;1668;49.648;8.570;2022-07-06T05:49:42;4.83;;;2.80;;
3311;SDS011;1668;49.648;8.570;2022-07-06T05:52:26;4.63;;;2.63;;
3311;SDS011;1668;49.648;8.570;2022-07-06T05:54:54;3.87;;;3.00;;
3311;SDS011;1668;49.648;8.570;2022-07-06T05:57:21;7.10;;;3.43;;
3311;SDS011;1668;49.648;8.570;2022-07-06T05:59:48;4.97;;;3.20;;
3311;SDS011;1668;49.648;8.570;2022-07-06T06:02:15;5.17;;;2.97;;
3311;SDS011;1668;49.648;8.570;2022-07-06T06:04:42;7.60;;;2.80;;
3311;SDS011;1668;49.648;8.570;2022-07-06T06:07:09;8.47;;;3.17;;
3311;SDS011;1668;49.648;8.570;2022-07-06T06:09:36;8.57;;;3.77;;
3311;SDS011;1668;49.648;8.570;2022-07-06T06:12:05;6.00;;;3.53;;
3311;SDS011;1668;49.648;8.570;2022-07-06T06:14:33;6.20;;;3.40;;
3311;SDS011;1668;49.648;8.570;2022-07-06T06:16:59;6.17;;;3.67;;
3311;SDS011;1668;49.648;8.570;2022-07-06T06:19:26;5.77;;;3.60;;
3311;SDS011;1668;49.648;8.570;2022-07-06T06:21:53;8.47;;;3.40;;
3311;SDS011;1668;49.648;8.570;2022-07-06T06:24:20;5.40;;;3.43;;
3311;SDS011;1668;49.648;8.570;2022-07-06T06:26:49;6.20;;;3.03;;
3311;SDS011;1668;49.648;8.570;2022-07-06T06:29:17;5.40;;;3.30;;
3311;SDS011;1668;49.648;8.570;2022-07-06T06:31:44;5.37;;;3.07;;
3311;SDS011;1668;49.648;8.570;2022-07-06T06:34:11;4.90;;;2.40;;
3311;SDS011;1668;49.648;8.570;2022-07-06T06:36:38;4.93;;;2.80;;
3311;SDS011;1668;49.648;8.570;2022-07-06T06:39:05;5.23;;;2.87;;
3311;SDS011;1668;49.648;8.570;2022-07-06T06:41:32;3.97;;;2.77;;
3311;SDS011;1668;49.648;8.570;2022-07-06T06:43:58;4.47;;;2.80;;
3311;SDS011;1668;49.648;8.570;2022-07-06T06:46:28;4.83;;;3.47;;
3311;SDS011;1668;49.648;8.570;2022-07-06T06:48:54;7.43;;;3.10;;
3311;SDS011;1668;49.648;8.570;2022-07-06T06:51:21;4.87;;;2.80;;
3311;SDS011;1668;49.648;8.570;2022-07-06T06:53:48;4.80;;;2.50;;
3311;SDS011;1668;49.648;8.570;2022-07-06T06:56:15;4.20;;;2.40;;
3311;SDS011;1668;49.648;8.570;2022-07-06T06:58:42;6.93;;;3.20;;
3311;SDS011;1668;49.648;8.570;2022-07-06T07:01:09;6.27;;;3.10;;
3311;SDS011;1668;49.648;8.570;2022-07-06T07:03:38;10.47;;;3.10;;
3311;SDS011;1668;49.648;8.570;2022-07-06T07:06:05;5.50;;;3.63;;
3311;SDS011;1668;49.648;8.570;2022-07-06T07:08:32;7.97;;;3.07;;
3311;SDS011;1668;49.648;8.570;2022-07-06T07:10:59;6.90;;;3.17;;
3311;SDS011;1668;49.648;8.570;2022-07-06T07:13:26;5.83;;;3.20;;
3311;SDS011;1668;49.648;8.570;2022-07-06T07:15:52;3.23;;;2.20;;
3311;SDS011;1668;49.648;8.570;2022-07-06T07:18:20;8.37;;;2.77;;
3311;SDS011;1668;49.648;8.570;2022-07-06T07:20:48;5.43;;;3.30;;
3311;SDS011;1668;49.648;8.570;2022-07-06T07:23:16;5.60;;;3.27;;
3311;SDS011;1668;49.648;8.570;2022-07-06T07:25:43;5.90;;;3.50;;
3311;SDS011;1668;49.648;8.570;2022-07-06T07:28:10;4.50;;;2.70;;
3311;SDS011;1668;49.648;8.570;2022-07-06T07:30:38;6.00;;;3.70;;
3311;SDS011;1668;49.648;8.570;2022-07-06T07:33:05;5.30;;;3.37;;
3311;SDS011;1668;49.648;8.570;2022-07-06T07:35:32;6.77;;;3.33;;
3311;SDS011;1668;49.648;8.570;2022-07-06T07:38:01;6.60;;;3.60;;
3311;SDS011;1668;49.648;8.570;2022-07-06T07:40:27;6.23;;;3.23;;
3311;SDS011;1668;49.648;8.570;2022-07-06T07:42:55;7.90;;;3.37;;
3311;SDS011;1668;49.648;8.570;2022-07-06T07:45:22;4.87;;;3.00;;
3311;SDS011;1668;49.648;8.570;2022-07-06T07:47:49;6.43;;;3.27;;
3311;SDS011;1668;49.648;8.570;2022-07-06T07:50:16;7.27;;;3.30;;
3311;SDS011;1668;49.648;8.570;2022-07-06T07:52:43;5.10;;;3.30;;
3311;SDS011;1668;49.648;8.570;2022-07-06T07:55:12;6.43;;;3.40;;
3311;SDS011;1668;49.648;8.570;2022-07-06T07:57:39;7.03;;;3.70;;
3311;SDS011;1668;49.648;8.570;2022-07-06T08:00:06;10.53;;;4.27;;
3311;SDS011;1668;49.648;8.570;2022-07-06T08:02:34;4.50;;;3.07;;
3311;SDS011;1668;49.648;8.570;2022-07-06T08:05:01;5.87;;;3.27;;
3311;SDS011;1668;49.648;8.570;2022-07-06T08:07:30;3.20;;;2.80;;
3311;SDS011;1668;49.648;8.570;2022-07-06T08:09:57;5.03;;;3.10;;
3311;SDS011;1668;49.648;8.570;2022-07-06T08:12:25;4.63;;;2.90;;
3311;SDS011;1668;49.648;8.570;2022-07-06T08:14:52;4.97;;;3.00;;
3311;SDS011;1668;49.648;8.570;2022-07-06T08:17:21;5.60;;;2.80;;
3311;SDS011;1668;49.648;8.570;2022-07-06T08:19:48;4.83;;;2.97;;
3311;SDS011;1668;49.648;8.570;2022-07-06T08:22:15;4.70;;;3.23;;
3311;SDS011;1668;49.648;8.570;2022-07-06T08:24:42;5.87;;;2.60;;
3311;SDS011;1668;49.648;8.570;2022-07-06T08:27:09;4.33;;;2.70;;
3311;SDS011;1668;49.648;8.570;2022-07-06T08:29:37;6.67;;;2.73;;
3311;SDS011;1668;49.648;8.570;2022-07-06T08:32:05;4.87;;;3.43;;
3311;SDS011;1668;49.648;8.570;2022-07-06T08:34:32;5.63;;;3.23;;
3311;SDS011;1668;49.648;8.570;2022-07-06T08:36:59;5.93;;;2.77;;
3311;SDS011;1668;49.648;8.570;2022-07-06T08:39:26;4.80;;;2.60;;
3311;SDS011;1668;49.648;8.570;2022-07-06T08:41:53;5.93;;;3.00;;
3311;SDS011;1668;49.648;8.570;2022-07-06T08:44:22;7.37;;;2.80;;
3311;SDS011;1668;49.648;8.570;2022-07-06T08:46:52;5.10;;;2.70;;
3311;SDS011;1668;49.648;8.570;2022-07-06T08:49:20;5.17;;;2.47;;
3311;SDS011;1668;49.648;8.570;2022-07-06T08:51:48;8.10;;;2.60;;
3311;SDS011;1668;49.648;8.570;2022-07-06T08:54:16;5.30;;;2.50;;
3311;SDS011;1668;49.648;8.570;2022-07-06T08:56:45;10.67;;;2.40;;
3311;SDS011;1668;49.648;8.570;2022-07-06T08:59:12;4.87;;;2.93;;
3311;SDS011;1668;49.648;8.570;2022-07-06T09:01:39;7.00;;;2.80;;
3311;SDS011;1668;49.648;8.570;2022-07-06T09:04:07;6.00;;;2.63;;
3311;SDS011;1668;49.648;8.570;2022-07-06T09:06:35;4.53;;;2.37;;
3311;SDS011;1668;49.648;8.570;2022-07-06T09:09:04;5.43;;;2.37;;
3311;SDS011;1668;49.648;8.570;2022-07-06T09:11:32;3.63;;;2.57;;
3311;SDS011;1668;49.648;8.570;2022-07-06T09:14:02;9.17;;;2.50;;
3311;SDS011;1668;49.648;8.570;2022-07-06T09:16:30;4.17;;;2.00;;
3311;SDS011;1668;49.648;8.570;2022-07-06T09:18:57;4.70;;;2.30;;
3311;SDS011;1668;49.648;8.570;2022-07-06T09:21:26;6.50;;;2.73;;
3311;SDS011;1668;49.648;8.570;2022-07-06T09:23:57;3.90;;;2.20;;
3311;SDS011;1668;49.648;8.570;2022-07-06T09:26:27;3.97;;;2.90;;
3311;SDS011;1668;49.648;8.570;2022-07-06T09:28:55;4.57;;;2.63;;
3311;SDS011;1668;49.648;8.570;2022-07-06T09:31:25;6.00;;;2.70;;
3311;SDS011;1668;49.648;8.570;2022-07-06T09:33:57;6.23;;;2.80;;
3311;SDS011;1668;49.648;8.570;2022-07-06T09:36:38;3.40;;;2.77;;
3311;SDS011;1668;49.648;8.570;2022-07-06T09:39:18;3.70;;;2.40;;
3311;SDS011;1668;49.648;8.570;2022-07-06T09:41:48;7.23;;;2.73;;
3311;SDS011;1668;49.648;8.570;2022-07-06T09:44:23;3.90;;;2.10;;
3311;SDS011;1668;49.648;8.570;2022-07-06T09:46:52;3.13;;;2.10;;
3311;SDS011;1668;49.648;8.570;2022-07-06T09:49:22;4.43;;;2.53;;
3311;SDS011;1668;49.648;8.570;2022-07-06T09:51:51;7.13;;;2.33;;
3311;SDS011;1668;49.648;8.570;2022-07-06T09:54:20;3.70;;;1.97;;
3311;SDS011;1668;49.648;8.570;2022-07-06T09:56:48;4.33;;;2.40;;
3311;SDS011;1668;49.648;8.570;2022-07-06T09:59:17;3.70;;;1.93;;
3311;SDS011;1668;49.648;8.570;2022-07-06T10:01:46;3.83;;;2.30;;
3311;SDS011;1668;49.648;8.570;2022-07-06T10:04:16;6.77;;;1.93;;
3311;SDS011;1668;49.648;8.570;2022-07-06T10:06:45;3.03;;;2.00;;
3311;SDS011;1668;49.648;8.570;2022-07-06T10:09:14;4.00;;;1.90;;
3311;SDS011;1668;49.648;8.570;2022-07-06T10:11:42;7.40;;;2.03;;
3311;SDS011;1668;49.648;8.570;2022-07-06T10:14:12;5.43;;;2.83;;
3311;SDS011;1668;49.648;8.570;2022-07-06T10:16:43;5.07;;;2.83;;
3311;SDS011;1668;49.648;8.570;2022-07-06T10:19:13;5.93;;;2.87;;
3311;SDS011;1668;49.648;8.570;2022-07-06T10:21:40;5.33;;;2.90;;
3311;SDS011;1668;49.648;8.570;2022-07-06T10:24:08;5.50;;;2.40;;
3311;SDS011;1668;49.648;8.570;2022-07-06T10:26:37;4.83;;;2.60;;
3311;SDS011;1668;49.648;8.570;2022-07-06T10:29:05;5.60;;;2.80;;
3311;SDS011;1668;49.648;8.570;2022-07-06T10:31:33;4.20;;;2.37;;
3311;SDS011;1668;49.648;8.570;2022-07-06T10:34:04;3.13;;;2.10;;
3311;SDS011;1668;49.648;8.570;2022-07-06T10:36:36;2.10;;;1.70;;
3311;SDS011;1668;49.648;8.570;2022-07-06T10:39:03;4.07;;;2.20;;
3311;SDS011;1668;49.648;8.570;2022-07-06T10:41:52;4.10;;;2.10;;
3311;SDS011;1668;49.648;8.570;2022-07-06T10:44:19;4.97;;;2.03;;
3311;SDS011;1668;49.648;8.570;2022-07-06T10:46:53;3.10;;;1.90;;
3311;SDS011;1668;49.648;8.570;2022-07-06T10:49:22;7.30;;;2.83;;
3311;SDS011;1668;49.648;8.570;2022-07-06T10:51:50;4.70;;;2.13;;
3311;SDS011;1668;49.648;8.570;2022-07-06T10:54:17;3.57;;;1.63;;
3311;SDS011;1668;49.648;8.570;2022-07-06T10:56:46;3.43;;;2.00;;
3311;SDS011;1668;49.648;8.570;2022-07-06T10:59:15;3.37;;;1.93;;
3311;SDS011;1668;49.648;8.570;2022-07-06T11:04:40;2.10;;;1.73;;
3311;SDS011;1668;49.648;8.570;2022-07-06T11:07:09;4.53;;;1.83;;
3311;SDS011;1668;49.648;8.570;2022-07-06T11:09:37;3.90;;;1.87;;
3311;SDS011;1668;49.648;8.570;2022-07-06T11:12:14;2.30;;;1.40;;
3311;SDS011;1668;49.648;8.570;2022-07-06T11:14:44;3.03;;;2.10;;
3311;SDS011;1668;49.648;8.570;2022-07-06T11:17:12;4.10;;;1.70;;
3311;SDS011;1668;49.648;8.570;2022-07-06T11:19:47;2.70;;;1.50;;
3311;SDS011;1668;49.648;8.570;2022-07-06T11:22:15;4.07;;;1.77;;
3311;SDS011;1668;49.648;8.570;2022-07-06T11:24:45;4.80;;;1.67;;
3311;SDS011;1668;49.648;8.570;2022-07-06T11:27:12;3.73;;;1.30;;
3311;SDS011;1668;49.648;8.570;2022-07-06T11:29:40;2.90;;;1.20;;
3311;SDS011;1668;49.648;8.570;2022-07-06T11:32:09;5.10;;;1.50;;
3311;SDS011;1668;49.648;8.570;2022-07-06T11:34:37;2.90;;;1.50;;
3311;SDS011;1668;49.648;8.570;2022-07-06T11:37:06;3.10;;;1.20;;
3311;SDS011;1668;49.648;8.570;2022-07-06T11:39:35;4.20;;;1.70;;
3311;SDS011;1668;49.648;8.570;2022-07-06T11:42:05;2.40;;;1.60;;
3311;SDS011;1668;49.648;8.570;2022-07-06T11:44:33;2.50;;;1.40;;
3311;SDS011;1668;49.648;8.570;2022-07-06T11:47:02;3.07;;;1.87;;
3311;SDS011;1668;49.648;8.570;2022-07-06T11:49:31;2.20;;;1.50;;
3311;SDS011;1668;49.648;8.570;2022-07-06T11:51:59;2.17;;;1.20;;
3311;SDS011;1668;49.648;8.570;2022-07-06T11:54:31;5.47;;;1.23;;
3311;SDS011;1668;49.648;8.570;2022-07-06T11:56:58;2.23;;;1.40;;
3311;SDS011;1668;49.648;8.570;2022-07-06T11:59:26;2.07;;;1.30;;
3311;SDS011;1668;49.648;8.570;2022-07-06T12:01:59;2.13;;;1.53;;
3311;SDS011;1668;49.648;8.570;2022-07-06T12:04:26;2.37;;;1.47;;
3311;SDS011;1668;49.648;8.570;2022-07-06T12:06:55;2.40;;;1.50;;
3311;SDS011;1668;49.648;8.570;2022-07-06T12:09:25;2.07;;;1.40;;
3311;SDS011;1668;49.648;8.570;2022-07-06T12:11:55;5.03;;;1.70;;
3311;SDS011;1668;49.648;8.570;2022-07-06T12:14:22;5.47;;;1.60;;
3311;SDS011;1668;49.648;8.570;2022-07-06T12:16:49;3.43;;;2.07;;
3311;SDS011;1668;49.648;8.570;2022-07-06T12:19:16;1.93;;;1.50;;
3311;SDS011;1668;49.648;8.570;2022-07-06T12:21:44;2.87;;;1.70;;
3311;SDS011;1668;49.648;8.570;2022-07-06T12:24:24;3.57;;;1.73;;
3311;SDS011;1668;49.648;8.570;2022-07-06T12:27:10;4.60;;;2.00;;
3311;SDS011;1668;49.648;8.570;2022-07-06T12:29:38;4.63;;;2.43;;
3311;SDS011;1668;49.648;8.570;2022-07-06T12:32:06;4.27;;;1.90;;
3311;SDS011;1668;49.648;8.570;2022-07-06T12:34:56;3.63;;;2.17;;
3311;SDS011;1668;49.648;8.570;2022-07-06T12:37:30;2.83;;;1.93;;
3311;SDS011;1668;49.648;8.570;2022-07-06T12:43:00;3.87;;;2.30;;
3311;SDS011;1668;49.648;8.570;2022-07-06T12:45:27;5.97;;;2.43;;
3311;SDS011;1668;49.648;8.570;2022-07-06T12:48:02;7.80;;;2.67;;
3311;SDS011;1668;49.648;8.570;2022-07-06T12:50:42;4.00;;;2.43;;
3311;SDS011;1668;49.648;8.570;2022-07-06T12:53:23;4.43;;;2.20;;
3311;SDS011;1668;49.648;8.570;2022-07-06T12:58:38;2.90;;;2.33;;
3311;SDS011;1668;49.648;8.570;2022-07-06T13:01:05;4.03;;;2.40;;
3311;SDS011;1668;49.648;8.570;2022-07-06T13:03:37;4.90;;;2.20;;
3311;SDS011;1668;49.648;8.570;2022-07-06T13:06:05;2.53;;;2.10;;
3311;SDS011;1668;49.648;8.570;2022-07-06T13:08:33;2.33;;;1.83;;
3311;SDS011;1668;49.648;8.570;2022-07-06T13:11:00;3.07;;;2.40;;
3311;SDS011;1668;49.648;8.570;2022-07-06T13:13:28;3.27;;;2.37;;
3311;SDS011;1668;49.648;8.570;2022-07-06T13:15:55;2.10;;;1.80;;
3311;SDS011;1668;49.648;8.570;2022-07-06T13:18:23;2.90;;;1.93;;
3311;SDS011;1668;49.648;8.570;2022-07-06T13:20:50;2.53;;;1.83;;
3311;SDS011;1668;49.648;8.570;2022-07-06T13:23:23;4.03;;;1.40;;
3311;SDS011;1668;49.648;8.570;2022-07-06T13:26:05;3.20;;;1.90;;
3311;SDS011;1668;49.648;8.570;2022-07-06T13:28:34;2.03;;;1.70;;
3311;SDS011;1668;49.648;8.570;2022-07-06T13:31:01;4.63;;;1.70;;
3311;SDS011;1668;49.648;8.570;2022-07-06T13:33:28;3.80;;;1.70;;
3311;SDS011;1668;49.648;8.570;2022-07-06T13:35:55;4.90;;;1.90;;
3311;SDS011;1668;49.648;8.570;2022-07-06T13:38:22;1.97;;;1.50;;
3311;SDS011;1668;49.648;8.570;2022-07-06T13:40:49;2.77;;;1.47;;
3311;SDS011;1668;49.648;8.570;2022-07-06T13:43:16;3.53;;;1.60;;
3311;SDS011;1668;49.648;8.570;2022-07-06T13:45:44;2.30;;;1.60;;
3311;SDS011;1668;49.648;8.570;2022-07-06T13:48:12;4.00;;;1.50;;
3311;SDS011;1668;49.648;8.570;2022-07-06T13:50:44;2.53;;;1.33;;
3311;SDS011;1668;49.648;8.570;2022-07-06T13:53:11;2.30;;;1.50;;
3311;SDS011;1668;49.648;8.570;2022-07-06T13:55:37;2.90;;;1.70;;
3311;SDS011;1668;49.648;8.570;2022-07-06T13:58:04;2.83;;;1.80;;
3311;SDS011;1668;49.648;8.570;2022-07-06T14:00:32;2.87;;;1.50;;
3311;SDS011;1668;49.648;8.570;2022-07-06T14:03:01;2.37;;;1.57;;
3311;SDS011;1668;49.648;8.570;2022-07-06T14:05:28;4.27;;;1.50;;
3311;SDS011;1668;49.648;8.570;2022-07-06T14:07:56;4.60;;;1.43;;
3311;SDS011;1668;49.648;8.570;2022-07-06T14:10:23;4.70;;;1.30;;
3311;SDS011;1668;49.648;8.570;2022-07-06T14:12:50;2.90;;;1.40;;
3311;SDS011;1668;49.648;8.570;2022-07-06T14:15:18;2.80;;;1.30;;
3311;SDS011;1668;49.648;8.570;2022-07-06T14:17:45;1.83;;;1.47;;
3311;SDS011;1668;49.648;8.570;2022-07-06T14:20:15;3.73;;;1.60;;
3311;SDS011;1668;49.648;8.570;2022-07-06T14:22:43;3.90;;;1.20;;
3311;SDS011;1668;49.648;8.570;2022-07-06T14:25:10;3.47;;;1.50;;
3311;SDS011;1668;49.648;8.570;2022-07-06T14:27:38;2.23;;;1.33;;
3311;SDS011;1668;49.648;8.570;2022-07-06T14:30:06;2.93;;;1.47;;
3311;SDS011;1668;49.648;8.570;2022-07-06T14:32:35;3.80;;;1.60;;
3311;SDS011;1668;49.648;8.570;2022-07-06T14:35:02;4.20;;;1.50;;
3311;SDS011;1668;49.648;8.570;2022-07-06T14:37:31;3.20;;;1.30;;
3311;SDS011;1668;49.648;8.570;2022-07-06T14:39:58;2.97;;;1.40;;
3311;SDS011;1668;49.648;8.570;2022-07-06T14:42:25;2.90;;;1.17;;
3311;SDS011;1668;49.648;8.570;2022-07-06T14:44:52;2.27;;;1.10;;
3311;SDS011;1668;49.648;8.570;2022-07-06T14:47:19;1.50;;;1.10;;
3311;SDS011;1668;49.648;8.570;2022-07-06T14:49:46;2.20;;;1.20;;
3311;SDS011;1668;49.648;8.570;2022-07-06T14:52:13;5.20;;;1.17;;
3311;SDS011;1668;49.648;8.570;2022-07-06T14:54:42;2.40;;;1.30;;
3311;SDS011;1668;49.648;8.570;2022-07-06T14:57:08;2.83;;;1.23;;
3311;SDS011;1668;49.648;8.570;2022-07-06T14:59:35;2.13;;;1.37;;
3311;SDS011;1668;49.648;8.570;2022-07-06T15:02:03;1.90;;;1.33;;
3311;SDS011;1668;49.648;8.570;2022-07-06T15:04:30;4.13;;;1.40;;
3311;SDS011;1668;49.648;8.570;2022-07-06T15:06:57;1.80;;;1.30;;
3311;SDS011;1668;49.648;8.570;2022-07-06T15:09:24;4.73;;;1.53;;
3311;SDS011;1668;49.648;8.570;2022-07-06T15:11:55;2.57;;;1.47;;
3311;SDS011;1668;49.648;8.570;2022-07-06T15:14:22;2.53;;;1.10;;
3311;SDS011;1668;49.648;8.570;2022-07-06T15:16:49;3.63;;;1.43;;
3311;SDS011;1668;49.648;8.570;2022-07-06T15:19:18;4.00;;;1.30;;
3311;SDS011;1668;49.648;8.570;2022-07-06T15:21:45;1.97;;;1.10;;
3311;SDS011;1668;49.648;8.570;2022-07-06T15:24:12;2.93;;;1.20;;
3311;SDS011;1668;49.648;8.570;2022-07-06T15:26:40;3.20;;;1.20;;
3311;SDS011;1668;49.648;8.570;2022-07-06T15:29:09;4.17;;;1.20;;